sensor_id;sensor_type;location;lat;lon;timestamp;P1;durP1;ratioP1;P2;durP2;ratioP2
69719;SDS011;56988;56.122;13.798;2023-01-25T00:00:22;37.60;;;16.83;;
69719;SDS011;56988;56.122;13.798;2023-01-25T00:01:22;35.60;;;16.15;;
69719;SDS011;56988;56.122;13.798;2023-01-25T00:02:22;35.75;;;16.42;;
69719;SDS011;56988;56.122;13.798;2023-01-25T00:03:22;32.27;;;16.03;;
69719;SDS011;56988;56.122;13.798;2023-01-25T00:04:23;34.15;;;16.60;;
69719;SDS011;56988;56.122;13.798;2023-01-25T00:05:23;35.33;;;16.35;;
69719;SDS011;56988;56.122;13.798;2023-01-25T00:06:24;34.25;;;17.35;;
69719;SDS011;56988;56.122;13.798;2023-01-25T00:07:24;33.40;;;15.93;;
69719;SDS011;56988;56.122;13.798;2023-01-25T00:08:24;36.78;;;17.60;;
69719;SDS011;56988;56.122;13.798;2023-01-25T00:09:25;35.05;;;16.80;;
69719;SDS011;56988;56.122;13.798;2023-01-25T00:10:25;38.70;;;15.73;;
69719;SDS011;56988;56.122;13.798;2023-01-25T00:11:25;38.67;;;16.80;;
69719;SDS011;56988;56.122;13.798;2023-01-25T00:12:26;36.78;;;16.83;;
69719;SDS011;56988;56.122;13.798;2023-01-25T00:13:26;39.25;;;18.30;;
69719;SDS011;56988;56.122;13.798;2023-01-25T00:14:26;34.90;;;16.17;;
69719;SDS011;56988;56.122;13.798;2023-01-25T00:15:26;33.53;;;16.77;;
69719;SDS011;56988;56.122;13.798;2023-01-25T00:16:27;35.78;;;17.27;;
69719;SDS011;56988;56.122;13.798;2023-01-25T00:17:27;34.60;;;16.67;;
69719;SDS011;56988;56.122;13.798;2023-01-25T00:18:27;35.93;;;16.40;;
69719;SDS011;56988;56.122;13.798;2023-01-25T00:19:27;43.47;;;18.50;;
69719;SDS011;56988;56.122;13.798;2023-01-25T00:20:28;36.50;;;16.15;;
69719;SDS011;56988;56.122;13.798;2023-01-25T00:21:28;35.45;;;17.02;;
69719;SDS011;56988;56.122;13.798;2023-01-25T00:22:28;34.88;;;17.05;;
69719;SDS011;56988;56.122;13.798;2023-01-25T00:23:32;34.67;;;16.30;;
69719;SDS011;56988;56.122;13.798;2023-01-25T00:24:33;37.08;;;17.88;;
69719;SDS011;56988;56.122;13.798;2023-01-25T00:25:33;33.03;;;16.10;;
69719;SDS011;56988;56.122;13.798;2023-01-25T00:26:33;34.30;;;17.42;;
69719;SDS011;56988;56.122;13.798;2023-01-25T00:28:34;35.20;;;17.00;;
69719;SDS011;56988;56.122;13.798;2023-01-25T00:29:35;37.63;;;16.52;;
69719;SDS011;56988;56.122;13.798;2023-01-25T00:30:35;34.38;;;16.23;;
69719;SDS011;56988;56.122;13.798;2023-01-25T00:31:37;35.20;;;16.40;;
69719;SDS011;56988;56.122;13.798;2023-01-25T00:32:41;36.75;;;16.73;;
69719;SDS011;56988;56.122;13.798;2023-01-25T00:33:49;36.28;;;17.98;;
69719;SDS011;56988;56.122;13.798;2023-01-25T00:34:50;37.28;;;17.98;;
69719;SDS011;56988;56.122;13.798;2023-01-25T00:35:50;36.58;;;16.98;;
69719;SDS011;56988;56.122;13.798;2023-01-25T00:37:02;35.85;;;17.73;;
69719;SDS011;56988;56.122;13.798;2023-01-25T00:38:02;34.92;;;17.42;;
69719;SDS011;56988;56.122;13.798;2023-01-25T00:39:05;36.88;;;18.95;;
69719;SDS011;56988;56.122;13.798;2023-01-25T00:40:06;35.10;;;17.25;;
69719;SDS011;56988;56.122;13.798;2023-01-25T00:41:08;31.98;;;16.33;;
69719;SDS011;56988;56.122;13.798;2023-01-25T00:42:09;34.78;;;17.13;;
69719;SDS011;56988;56.122;13.798;2023-01-25T00:43:10;38.85;;;18.63;;
69719;SDS011;56988;56.122;13.798;2023-01-25T00:44:10;37.03;;;17.15;;
69719;SDS011;56988;56.122;13.798;2023-01-25T00:45:11;36.60;;;17.88;;
69719;SDS011;56988;56.122;13.798;2023-01-25T00:46:15;34.78;;;16.98;;
69719;SDS011;56988;56.122;13.798;2023-01-25T00:47:16;39.58;;;17.38;;
69719;SDS011;56988;56.122;13.798;2023-01-25T00:48:16;34.38;;;17.50;;
69719;SDS011;56988;56.122;13.798;2023-01-25T00:49:20;33.90;;;18.38;;
69719;SDS011;56988;56.122;13.798;2023-01-25T00:50:21;36.90;;;17.48;;
69719;SDS011;56988;56.122;13.798;2023-01-25T00:51:22;36.08;;;16.27;;
69719;SDS011;56988;56.122;13.798;2023-01-25T00:52:22;36.10;;;17.77;;
69719;SDS011;56988;56.122;13.798;2023-01-25T00:53:23;36.55;;;18.02;;
69719;SDS011;56988;56.122;13.798;2023-01-25T00:54:23;38.10;;;19.02;;
69719;SDS011;56988;56.122;13.798;2023-01-25T00:55:23;36.58;;;17.45;;
69719;SDS011;56988;56.122;13.798;2023-01-25T00:56:24;38.20;;;17.42;;
69719;SDS011;56988;56.122;13.798;2023-01-25T00:57:24;36.58;;;18.13;;
69719;SDS011;56988;56.122;13.798;2023-01-25T00:58:24;38.75;;;17.60;;
69719;SDS011;56988;56.122;13.798;2023-01-25T00:59:25;31.95;;;16.73;;
69719;SDS011;56988;56.122;13.798;2023-01-25T01:00:25;33.67;;;17.58;;
69719;SDS011;56988;56.122;13.798;2023-01-25T01:01:25;37.78;;;17.40;;
69719;SDS011;56988;56.122;13.798;2023-01-25T01:02:26;39.65;;;17.42;;
69719;SDS011;56988;56.122;13.798;2023-01-25T01:03:26;35.40;;;18.15;;
69719;SDS011;56988;56.122;13.798;2023-01-25T01:04:26;33.63;;;17.33;;
69719;SDS011;56988;56.122;13.798;2023-01-25T01:05:26;36.58;;;17.00;;
69719;SDS011;56988;56.122;13.798;2023-01-25T01:06:28;35.72;;;17.65;;
69719;SDS011;56988;56.122;13.798;2023-01-25T01:07:28;36.10;;;18.00;;
69719;SDS011;56988;56.122;13.798;2023-01-25T01:08:28;39.30;;;17.83;;
69719;SDS011;56988;56.122;13.798;2023-01-25T01:09:29;33.80;;;17.65;;
69719;SDS011;56988;56.122;13.798;2023-01-25T01:10:31;37.17;;;17.15;;
69719;SDS011;56988;56.122;13.798;2023-01-25T01:11:31;34.72;;;17.33;;
69719;SDS011;56988;56.122;13.798;2023-01-25T01:12:32;37.15;;;17.85;;
69719;SDS011;56988;56.122;13.798;2023-01-25T01:13:32;37.08;;;17.15;;
69719;SDS011;56988;56.122;13.798;2023-01-25T01:14:32;38.40;;;18.13;;
69719;SDS011;56988;56.122;13.798;2023-01-25T01:15:36;33.10;;;17.08;;
69719;SDS011;56988;56.122;13.798;2023-01-25T01:16:36;34.65;;;17.70;;
69719;SDS011;56988;56.122;13.798;2023-01-25T01:17:36;37.35;;;18.23;;
69719;SDS011;56988;56.122;13.798;2023-01-25T01:18:41;33.20;;;17.13;;
69719;SDS011;56988;56.122;13.798;2023-01-25T01:19:41;36.47;;;18.13;;
69719;SDS011;56988;56.122;13.798;2023-01-25T01:20:46;36.30;;;18.20;;
69719;SDS011;56988;56.122;13.798;2023-01-25T01:21:47;33.03;;;17.80;;
69719;SDS011;56988;56.122;13.798;2023-01-25T01:22:50;36.22;;;18.30;;
69719;SDS011;56988;56.122;13.798;2023-01-25T01:23:50;36.28;;;18.45;;
69719;SDS011;56988;56.122;13.798;2023-01-25T01:24:52;34.47;;;17.67;;
69719;SDS011;56988;56.122;13.798;2023-01-25T01:25:52;35.90;;;18.52;;
69719;SDS011;56988;56.122;13.798;2023-01-25T01:26:53;37.60;;;18.27;;
69719;SDS011;56988;56.122;13.798;2023-01-25T01:27:53;40.55;;;18.75;;
69719;SDS011;56988;56.122;13.798;2023-01-25T01:28:53;34.87;;;17.70;;
69719;SDS011;56988;56.122;13.798;2023-01-25T01:29:54;40.00;;;19.75;;
69719;SDS011;56988;56.122;13.798;2023-01-25T01:30:58;37.53;;;19.23;;
69719;SDS011;56988;56.122;13.798;2023-01-25T01:31:59;39.60;;;19.23;;
69719;SDS011;56988;56.122;13.798;2023-01-25T01:32:59;41.10;;;19.55;;
69719;SDS011;56988;56.122;13.798;2023-01-25T01:33:59;38.80;;;18.63;;
69719;SDS011;56988;56.122;13.798;2023-01-25T01:35:00;38.40;;;18.88;;
69719;SDS011;56988;56.122;13.798;2023-01-25T01:36:10;36.55;;;18.27;;
69719;SDS011;56988;56.122;13.798;2023-01-25T01:37:11;38.33;;;17.88;;
69719;SDS011;56988;56.122;13.798;2023-01-25T01:38:11;43.53;;;19.95;;
69719;SDS011;56988;56.122;13.798;2023-01-25T01:39:12;39.38;;;19.88;;
69719;SDS011;56988;56.122;13.798;2023-01-25T01:40:15;38.95;;;20.00;;
69719;SDS011;56988;56.122;13.798;2023-01-25T01:41:15;41.53;;;20.17;;
69719;SDS011;56988;56.122;13.798;2023-01-25T01:42:16;42.10;;;20.55;;
69719;SDS011;56988;56.122;13.798;2023-01-25T01:43:20;43.80;;;20.20;;
69719;SDS011;56988;56.122;13.798;2023-01-25T01:44:39;43.63;;;21.90;;
69719;SDS011;56988;56.122;13.798;2023-01-25T01:46:52;40.35;;;20.50;;
69719;SDS011;56988;56.122;13.798;2023-01-25T01:47:53;42.15;;;20.77;;
69719;SDS011;56988;56.122;13.798;2023-01-25T01:50:16;41.30;;;21.27;;
69719;SDS011;56988;56.122;13.798;2023-01-25T01:52:22;39.05;;;19.30;;
69719;SDS011;56988;56.122;13.798;2023-01-25T01:53:24;40.85;;;21.80;;
69719;SDS011;56988;56.122;13.798;2023-01-25T01:54:30;48.17;;;21.27;;
69719;SDS011;56988;56.122;13.798;2023-01-25T01:55:32;43.58;;;21.38;;
69719;SDS011;56988;56.122;13.798;2023-01-25T01:56:38;43.42;;;20.92;;
69719;SDS011;56988;56.122;13.798;2023-01-25T01:57:49;41.15;;;20.45;;
69719;SDS011;56988;56.122;13.798;2023-01-25T01:58:50;37.97;;;18.75;;
69719;SDS011;56988;56.122;13.798;2023-01-25T01:59:54;41.47;;;20.27;;
69719;SDS011;56988;56.122;13.798;2023-01-25T02:00:56;40.15;;;20.40;;
69719;SDS011;56988;56.122;13.798;2023-01-25T02:01:57;44.55;;;20.85;;
69719;SDS011;56988;56.122;13.798;2023-01-25T02:02:57;45.88;;;21.17;;
69719;SDS011;56988;56.122;13.798;2023-01-25T02:03:58;42.72;;;21.08;;
69719;SDS011;56988;56.122;13.798;2023-01-25T02:04:59;43.78;;;21.90;;
69719;SDS011;56988;56.122;13.798;2023-01-25T02:06:01;42.80;;;20.33;;
69719;SDS011;56988;56.122;13.798;2023-01-25T02:07:16;44.28;;;21.52;;
69719;SDS011;56988;56.122;13.798;2023-01-25T02:08:18;45.55;;;20.70;;
69719;SDS011;56988;56.122;13.798;2023-01-25T02:09:22;44.47;;;20.65;;
69719;SDS011;56988;56.122;13.798;2023-01-25T02:10:24;39.90;;;20.95;;
69719;SDS011;56988;56.122;13.798;2023-01-25T02:11:25;44.63;;;21.95;;
69719;SDS011;56988;56.122;13.798;2023-01-25T02:12:26;40.58;;;20.25;;
69719;SDS011;56988;56.122;13.798;2023-01-25T02:13:26;40.08;;;20.02;;
69719;SDS011;56988;56.122;13.798;2023-01-25T02:14:27;41.45;;;19.85;;
69719;SDS011;56988;56.122;13.798;2023-01-25T02:16:28;41.30;;;18.77;;
69719;SDS011;56988;56.122;13.798;2023-01-25T02:17:30;42.95;;;20.42;;
69719;SDS011;56988;56.122;13.798;2023-01-25T02:18:31;46.45;;;21.05;;
69719;SDS011;56988;56.122;13.798;2023-01-25T02:20:39;45.15;;;21.77;;
69719;SDS011;56988;56.122;13.798;2023-01-25T02:21:40;45.80;;;21.40;;
69719;SDS011;56988;56.122;13.798;2023-01-25T02:22:45;40.75;;;20.30;;
69719;SDS011;56988;56.122;13.798;2023-01-25T02:24:54;43.40;;;21.17;;
69719;SDS011;56988;56.122;13.798;2023-01-25T02:25:55;47.85;;;21.58;;
69719;SDS011;56988;56.122;13.798;2023-01-25T02:26:57;46.58;;;21.67;;
69719;SDS011;56988;56.122;13.798;2023-01-25T02:27:59;46.03;;;20.75;;
69719;SDS011;56988;56.122;13.798;2023-01-25T02:29:04;45.42;;;21.92;;
69719;SDS011;56988;56.122;13.798;2023-01-25T02:30:04;48.72;;;21.67;;
69719;SDS011;56988;56.122;13.798;2023-01-25T02:31:05;41.85;;;20.63;;
69719;SDS011;56988;56.122;13.798;2023-01-25T02:32:05;44.03;;;21.10;;
69719;SDS011;56988;56.122;13.798;2023-01-25T02:33:06;44.15;;;20.98;;
69719;SDS011;56988;56.122;13.798;2023-01-25T02:34:06;42.67;;;19.00;;
69719;SDS011;56988;56.122;13.798;2023-01-25T02:35:06;41.92;;;19.80;;
69719;SDS011;56988;56.122;13.798;2023-01-25T02:37:09;45.42;;;20.33;;
69719;SDS011;56988;56.122;13.798;2023-01-25T02:38:12;43.35;;;19.83;;
69719;SDS011;56988;56.122;13.798;2023-01-25T02:39:16;42.20;;;20.63;;
69719;SDS011;56988;56.122;13.798;2023-01-25T02:40:17;43.20;;;21.42;;
69719;SDS011;56988;56.122;13.798;2023-01-25T02:41:20;44.97;;;21.63;;
69719;SDS011;56988;56.122;13.798;2023-01-25T02:42:22;45.55;;;22.38;;
69719;SDS011;56988;56.122;13.798;2023-01-25T02:43:22;44.85;;;21.70;;
69719;SDS011;56988;56.122;13.798;2023-01-25T02:44:27;45.67;;;21.27;;
69719;SDS011;56988;56.122;13.798;2023-01-25T02:45:28;39.78;;;19.75;;
69719;SDS011;56988;56.122;13.798;2023-01-25T02:46:30;48.40;;;21.70;;
69719;SDS011;56988;56.122;13.798;2023-01-25T02:47:31;45.28;;;21.00;;
69719;SDS011;56988;56.122;13.798;2023-01-25T02:48:31;41.70;;;21.08;;
69719;SDS011;56988;56.122;13.798;2023-01-25T02:49:33;45.38;;;21.20;;
69719;SDS011;56988;56.122;13.798;2023-01-25T02:50:34;42.30;;;20.60;;
69719;SDS011;56988;56.122;13.798;2023-01-25T02:51:35;42.00;;;20.88;;
69719;SDS011;56988;56.122;13.798;2023-01-25T02:52:36;40.90;;;20.85;;
69719;SDS011;56988;56.122;13.798;2023-01-25T02:53:36;46.20;;;22.02;;
69719;SDS011;56988;56.122;13.798;2023-01-25T02:54:36;43.65;;;21.02;;
69719;SDS011;56988;56.122;13.798;2023-01-25T02:55:37;42.40;;;20.73;;
69719;SDS011;56988;56.122;13.798;2023-01-25T02:56:37;44.43;;;21.47;;
69719;SDS011;56988;56.122;13.798;2023-01-25T02:57:39;42.83;;;21.48;;
69719;SDS011;56988;56.122;13.798;2023-01-25T02:58:40;45.95;;;21.92;;
69719;SDS011;56988;56.122;13.798;2023-01-25T02:59:40;45.42;;;20.83;;
69719;SDS011;56988;56.122;13.798;2023-01-25T03:00:40;46.80;;;20.52;;
69719;SDS011;56988;56.122;13.798;2023-01-25T03:01:41;40.67;;;20.92;;
69719;SDS011;56988;56.122;13.798;2023-01-25T03:02:41;46.20;;;20.48;;
69719;SDS011;56988;56.122;13.798;2023-01-25T03:03:41;43.65;;;21.05;;
69719;SDS011;56988;56.122;13.798;2023-01-25T03:04:42;44.28;;;19.95;;
69719;SDS011;56988;56.122;13.798;2023-01-25T03:05:42;43.83;;;21.67;;
69719;SDS011;56988;56.122;13.798;2023-01-25T03:06:43;47.83;;;22.55;;
69719;SDS011;56988;56.122;13.798;2023-01-25T03:07:43;45.08;;;21.58;;
69719;SDS011;56988;56.122;13.798;2023-01-25T03:08:43;48.47;;;20.95;;
69719;SDS011;56988;56.122;13.798;2023-01-25T03:09:44;48.92;;;21.77;;
69719;SDS011;56988;56.122;13.798;2023-01-25T03:10:44;50.25;;;23.05;;
69719;SDS011;56988;56.122;13.798;2023-01-25T03:11:44;46.67;;;21.83;;
69719;SDS011;56988;56.122;13.798;2023-01-25T03:12:45;45.17;;;21.25;;
69719;SDS011;56988;56.122;13.798;2023-01-25T03:13:45;48.63;;;23.23;;
69719;SDS011;56988;56.122;13.798;2023-01-25T03:14:45;42.47;;;21.00;;
69719;SDS011;56988;56.122;13.798;2023-01-25T03:15:45;46.28;;;21.60;;
69719;SDS011;56988;56.122;13.798;2023-01-25T03:16:46;44.78;;;20.80;;
69719;SDS011;56988;56.122;13.798;2023-01-25T03:17:46;43.20;;;21.25;;
69719;SDS011;56988;56.122;13.798;2023-01-25T03:18:46;47.20;;;22.25;;
69719;SDS011;56988;56.122;13.798;2023-01-25T03:19:47;48.72;;;23.00;;
69719;SDS011;56988;56.122;13.798;2023-01-25T03:20:47;45.90;;;21.63;;
69719;SDS011;56988;56.122;13.798;2023-01-25T03:21:47;45.57;;;21.47;;
69719;SDS011;56988;56.122;13.798;2023-01-25T03:22:47;43.10;;;21.77;;
69719;SDS011;56988;56.122;13.798;2023-01-25T03:23:53;44.45;;;21.80;;
69719;SDS011;56988;56.122;13.798;2023-01-25T03:24:54;45.60;;;21.60;;
69719;SDS011;56988;56.122;13.798;2023-01-25T03:26:03;44.35;;;21.50;;
69719;SDS011;56988;56.122;13.798;2023-01-25T03:27:03;44.47;;;22.20;;
69719;SDS011;56988;56.122;13.798;2023-01-25T03:28:13;46.80;;;21.73;;
69719;SDS011;56988;56.122;13.798;2023-01-25T03:29:13;48.72;;;21.98;;
69719;SDS011;56988;56.122;13.798;2023-01-25T03:30:13;46.22;;;22.42;;
69719;SDS011;56988;56.122;13.798;2023-01-25T03:31:14;47.15;;;22.20;;
69719;SDS011;56988;56.122;13.798;2023-01-25T03:32:15;49.40;;;22.83;;
69719;SDS011;56988;56.122;13.798;2023-01-25T03:33:15;45.17;;;21.73;;
69719;SDS011;56988;56.122;13.798;2023-01-25T03:34:15;47.70;;;22.50;;
69719;SDS011;56988;56.122;13.798;2023-01-25T03:35:16;49.53;;;22.58;;
69719;SDS011;56988;56.122;13.798;2023-01-25T03:36:16;47.33;;;22.00;;
69719;SDS011;56988;56.122;13.798;2023-01-25T03:37:16;43.05;;;21.33;;
69719;SDS011;56988;56.122;13.798;2023-01-25T03:38:16;45.63;;;21.80;;
69719;SDS011;56988;56.122;13.798;2023-01-25T03:39:18;48.80;;;22.55;;
69719;SDS011;56988;56.122;13.798;2023-01-25T03:40:18;41.13;;;21.23;;
69719;SDS011;56988;56.122;13.798;2023-01-25T03:41:19;47.63;;;22.90;;
69719;SDS011;56988;56.122;13.798;2023-01-25T03:42:19;46.42;;;20.83;;
69719;SDS011;56988;56.122;13.798;2023-01-25T03:43:20;44.83;;;20.35;;
69719;SDS011;56988;56.122;13.798;2023-01-25T03:44:21;46.30;;;21.75;;
69719;SDS011;56988;56.122;13.798;2023-01-25T03:45:21;41.28;;;21.27;;
69719;SDS011;56988;56.122;13.798;2023-01-25T03:46:21;46.43;;;22.10;;
69719;SDS011;56988;56.122;13.798;2023-01-25T03:47:22;41.10;;;20.40;;
69719;SDS011;56988;56.122;13.798;2023-01-25T03:48:22;47.90;;;22.40;;
69719;SDS011;56988;56.122;13.798;2023-01-25T03:49:23;44.05;;;21.30;;
69719;SDS011;56988;56.122;13.798;2023-01-25T03:50:23;47.45;;;23.58;;
69719;SDS011;56988;56.122;13.798;2023-01-25T03:51:23;46.97;;;23.10;;
69719;SDS011;56988;56.122;13.798;2023-01-25T03:54:06;43.25;;;21.20;;
69719;SDS011;56988;56.122;13.798;2023-01-25T03:56:08;45.67;;;20.90;;
69719;SDS011;56988;56.122;13.798;2023-01-25T03:57:09;47.63;;;22.80;;
69719;SDS011;56988;56.122;13.798;2023-01-25T03:58:09;43.13;;;21.38;;
69719;SDS011;56988;56.122;13.798;2023-01-25T03:59:10;46.92;;;23.10;;
69719;SDS011;56988;56.122;13.798;2023-01-25T04:00:11;42.30;;;21.75;;
69719;SDS011;56988;56.122;13.798;2023-01-25T04:01:12;43.92;;;22.10;;
69719;SDS011;56988;56.122;13.798;2023-01-25T04:02:12;46.28;;;21.85;;
69719;SDS011;56988;56.122;13.798;2023-01-25T04:03:13;45.90;;;22.30;;
69719;SDS011;56988;56.122;13.798;2023-01-25T04:04:14;48.78;;;23.20;;
69719;SDS011;56988;56.122;13.798;2023-01-25T04:05:15;46.97;;;22.63;;
69719;SDS011;56988;56.122;13.798;2023-01-25T04:06:15;47.92;;;23.45;;
69719;SDS011;56988;56.122;13.798;2023-01-25T04:07:15;47.47;;;24.27;;
69719;SDS011;56988;56.122;13.798;2023-01-25T04:08:16;47.05;;;23.75;;
69719;SDS011;56988;56.122;13.798;2023-01-25T04:09:16;43.53;;;22.95;;
69719;SDS011;56988;56.122;13.798;2023-01-25T04:10:16;46.50;;;22.52;;
69719;SDS011;56988;56.122;13.798;2023-01-25T04:11:17;46.22;;;22.52;;
69719;SDS011;56988;56.122;13.798;2023-01-25T04:12:17;48.57;;;22.03;;
69719;SDS011;56988;56.122;13.798;2023-01-25T04:13:17;46.65;;;22.65;;
69719;SDS011;56988;56.122;13.798;2023-01-25T04:14:18;48.92;;;24.52;;
69719;SDS011;56988;56.122;13.798;2023-01-25T04:15:18;45.90;;;21.77;;
69719;SDS011;56988;56.122;13.798;2023-01-25T04:16:18;46.17;;;21.10;;
69719;SDS011;56988;56.122;13.798;2023-01-25T04:17:19;45.80;;;22.42;;
69719;SDS011;56988;56.122;13.798;2023-01-25T04:18:19;47.00;;;22.42;;
69719;SDS011;56988;56.122;13.798;2023-01-25T04:19:20;44.17;;;22.50;;
69719;SDS011;56988;56.122;13.798;2023-01-25T04:20:20;47.63;;;23.05;;
69719;SDS011;56988;56.122;13.798;2023-01-25T04:21:21;42.35;;;22.00;;
69719;SDS011;56988;56.122;13.798;2023-01-25T04:22:21;45.92;;;22.38;;
69719;SDS011;56988;56.122;13.798;2023-01-25T04:23:22;43.90;;;22.00;;
69719;SDS011;56988;56.122;13.798;2023-01-25T04:24:22;52.13;;;23.92;;
69719;SDS011;56988;56.122;13.798;2023-01-25T04:25:23;41.97;;;21.47;;
69719;SDS011;56988;56.122;13.798;2023-01-25T04:26:23;43.08;;;21.63;;
69719;SDS011;56988;56.122;13.798;2023-01-25T04:27:23;53.80;;;25.17;;
69719;SDS011;56988;56.122;13.798;2023-01-25T04:28:24;48.13;;;23.15;;
69719;SDS011;56988;56.122;13.798;2023-01-25T04:29:24;46.90;;;23.17;;
69719;SDS011;56988;56.122;13.798;2023-01-25T04:30:24;48.40;;;22.40;;
69719;SDS011;56988;56.122;13.798;2023-01-25T04:31:24;45.97;;;22.42;;
69719;SDS011;56988;56.122;13.798;2023-01-25T04:32:25;45.85;;;22.65;;
69719;SDS011;56988;56.122;13.798;2023-01-25T04:33:25;45.38;;;22.50;;
69719;SDS011;56988;56.122;13.798;2023-01-25T04:34:25;42.13;;;21.17;;
69719;SDS011;56988;56.122;13.798;2023-01-25T04:35:26;44.88;;;23.15;;
69719;SDS011;56988;56.122;13.798;2023-01-25T04:36:26;43.90;;;22.45;;
69719;SDS011;56988;56.122;13.798;2023-01-25T04:37:26;43.20;;;22.08;;
69719;SDS011;56988;56.122;13.798;2023-01-25T04:38:27;40.67;;;21.02;;
69719;SDS011;56988;56.122;13.798;2023-01-25T04:39:27;46.53;;;22.98;;
69719;SDS011;56988;56.122;13.798;2023-01-25T04:40:27;47.10;;;23.57;;
69719;SDS011;56988;56.122;13.798;2023-01-25T04:41:28;42.33;;;21.73;;
69719;SDS011;56988;56.122;13.798;2023-01-25T04:42:28;48.13;;;23.08;;
69719;SDS011;56988;56.122;13.798;2023-01-25T04:43:29;45.10;;;22.33;;
69719;SDS011;56988;56.122;13.798;2023-01-25T04:44:29;44.38;;;21.85;;
69719;SDS011;56988;56.122;13.798;2023-01-25T04:45:29;40.35;;;19.63;;
69719;SDS011;56988;56.122;13.798;2023-01-25T04:46:29;43.08;;;22.52;;
69719;SDS011;56988;56.122;13.798;2023-01-25T04:47:30;42.78;;;21.80;;
69719;SDS011;56988;56.122;13.798;2023-01-25T04:48:30;43.05;;;21.33;;
69719;SDS011;56988;56.122;13.798;2023-01-25T04:49:31;44.42;;;21.90;;
69719;SDS011;56988;56.122;13.798;2023-01-25T04:50:31;42.95;;;20.38;;
69719;SDS011;56988;56.122;13.798;2023-01-25T04:51:31;49.55;;;22.55;;
69719;SDS011;56988;56.122;13.798;2023-01-25T04:52:32;48.97;;;23.10;;
69719;SDS011;56988;56.122;13.798;2023-01-25T04:53:35;42.85;;;21.83;;
69719;SDS011;56988;56.122;13.798;2023-01-25T04:54:36;45.60;;;23.08;;
69719;SDS011;56988;56.122;13.798;2023-01-25T04:55:36;47.25;;;22.60;;
69719;SDS011;56988;56.122;13.798;2023-01-25T04:56:36;46.97;;;22.63;;
69719;SDS011;56988;56.122;13.798;2023-01-25T04:57:37;44.92;;;23.08;;
69719;SDS011;56988;56.122;13.798;2023-01-25T04:58:37;45.35;;;22.05;;
69719;SDS011;56988;56.122;13.798;2023-01-25T04:59:37;44.53;;;21.67;;
69719;SDS011;56988;56.122;13.798;2023-01-25T05:00:37;42.90;;;21.17;;
69719;SDS011;56988;56.122;13.798;2023-01-25T05:01:38;49.80;;;22.60;;
69719;SDS011;56988;56.122;13.798;2023-01-25T05:02:38;50.78;;;23.20;;
69719;SDS011;56988;56.122;13.798;2023-01-25T05:03:38;43.17;;;21.67;;
69719;SDS011;56988;56.122;13.798;2023-01-25T05:04:39;44.30;;;21.90;;
69719;SDS011;56988;56.122;13.798;2023-01-25T05:05:42;45.60;;;23.45;;
69719;SDS011;56988;56.122;13.798;2023-01-25T05:06:43;49.50;;;22.63;;
69719;SDS011;56988;56.122;13.798;2023-01-25T05:07:43;46.05;;;22.00;;
69719;SDS011;56988;56.122;13.798;2023-01-25T05:08:43;43.22;;;22.33;;
69719;SDS011;56988;56.122;13.798;2023-01-25T05:09:43;49.28;;;22.67;;
69719;SDS011;56988;56.122;13.798;2023-01-25T05:10:44;46.85;;;22.70;;
69719;SDS011;56988;56.122;13.798;2023-01-25T05:11:44;48.28;;;21.98;;
69719;SDS011;56988;56.122;13.798;2023-01-25T05:12:44;46.53;;;23.77;;
69719;SDS011;56988;56.122;13.798;2023-01-25T05:13:45;45.97;;;23.13;;
69719;SDS011;56988;56.122;13.798;2023-01-25T05:14:45;50.50;;;23.33;;
69719;SDS011;56988;56.122;13.798;2023-01-25T05:15:45;49.25;;;23.50;;
69719;SDS011;56988;56.122;13.798;2023-01-25T05:16:45;47.13;;;23.10;;
69719;SDS011;56988;56.122;13.798;2023-01-25T05:17:46;48.65;;;23.10;;
69719;SDS011;56988;56.122;13.798;2023-01-25T05:18:46;45.03;;;21.88;;
69719;SDS011;56988;56.122;13.798;2023-01-25T05:19:47;46.22;;;22.35;;
69719;SDS011;56988;56.122;13.798;2023-01-25T05:20:47;44.45;;;22.13;;
69719;SDS011;56988;56.122;13.798;2023-01-25T05:21:52;44.83;;;22.73;;
69719;SDS011;56988;56.122;13.798;2023-01-25T05:22:58;44.78;;;23.40;;
69719;SDS011;56988;56.122;13.798;2023-01-25T05:23:59;50.55;;;23.63;;
69719;SDS011;56988;56.122;13.798;2023-01-25T05:24:59;46.75;;;22.80;;
69719;SDS011;56988;56.122;13.798;2023-01-25T05:26:00;49.40;;;24.25;;
69719;SDS011;56988;56.122;13.798;2023-01-25T05:27:19;55.80;;;24.73;;
69719;SDS011;56988;56.122;13.798;2023-01-25T05:28:20;54.58;;;25.10;;
69719;SDS011;56988;56.122;13.798;2023-01-25T05:29:20;50.67;;;23.85;;
69719;SDS011;56988;56.122;13.798;2023-01-25T05:30:20;46.23;;;22.97;;
69719;SDS011;56988;56.122;13.798;2023-01-25T05:31:21;45.20;;;23.67;;
69719;SDS011;56988;56.122;13.798;2023-01-25T05:32:21;50.55;;;23.05;;
69719;SDS011;56988;56.122;13.798;2023-01-25T05:33:22;53.58;;;25.27;;
69719;SDS011;56988;56.122;13.798;2023-01-25T05:34:22;48.00;;;23.25;;
69719;SDS011;56988;56.122;13.798;2023-01-25T05:35:23;47.72;;;21.60;;
69719;SDS011;56988;56.122;13.798;2023-01-25T05:36:23;49.38;;;24.50;;
69719;SDS011;56988;56.122;13.798;2023-01-25T05:37:23;54.83;;;23.95;;
69719;SDS011;56988;56.122;13.798;2023-01-25T05:38:24;48.08;;;23.45;;
69719;SDS011;56988;56.122;13.798;2023-01-25T05:39:24;47.17;;;23.73;;
69719;SDS011;56988;56.122;13.798;2023-01-25T05:40:25;47.38;;;23.27;;
69719;SDS011;56988;56.122;13.798;2023-01-25T05:41:25;50.88;;;23.90;;
69719;SDS011;56988;56.122;13.798;2023-01-25T05:42:25;48.40;;;22.77;;
69719;SDS011;56988;56.122;13.798;2023-01-25T05:43:26;50.03;;;24.25;;
69719;SDS011;56988;56.122;13.798;2023-01-25T05:44:26;47.92;;;22.48;;
69719;SDS011;56988;56.122;13.798;2023-01-25T05:45:26;50.22;;;23.70;;
69719;SDS011;56988;56.122;13.798;2023-01-25T05:46:29;47.25;;;22.38;;
69719;SDS011;56988;56.122;13.798;2023-01-25T05:47:29;50.15;;;23.92;;
69719;SDS011;56988;56.122;13.798;2023-01-25T05:48:29;46.38;;;23.40;;
69719;SDS011;56988;56.122;13.798;2023-01-25T05:49:29;44.88;;;22.23;;
69719;SDS011;56988;56.122;13.798;2023-01-25T05:50:30;45.55;;;22.88;;
69719;SDS011;56988;56.122;13.798;2023-01-25T05:51:30;47.05;;;23.08;;
69719;SDS011;56988;56.122;13.798;2023-01-25T05:52:30;45.28;;;21.67;;
69719;SDS011;56988;56.122;13.798;2023-01-25T05:53:31;44.05;;;22.95;;
69719;SDS011;56988;56.122;13.798;2023-01-25T05:54:31;43.00;;;22.38;;
69719;SDS011;56988;56.122;13.798;2023-01-25T05:55:33;45.35;;;22.55;;
69719;SDS011;56988;56.122;13.798;2023-01-25T05:56:33;45.90;;;22.33;;
69719;SDS011;56988;56.122;13.798;2023-01-25T05:57:34;45.83;;;23.25;;
69719;SDS011;56988;56.122;13.798;2023-01-25T05:58:34;46.08;;;22.52;;
69719;SDS011;56988;56.122;13.798;2023-01-25T05:59:34;44.83;;;22.30;;
69719;SDS011;56988;56.122;13.798;2023-01-25T06:00:35;50.78;;;24.90;;
69719;SDS011;56988;56.122;13.798;2023-01-25T06:01:35;45.08;;;22.33;;
69719;SDS011;56988;56.122;13.798;2023-01-25T06:02:35;48.90;;;23.95;;
69719;SDS011;56988;56.122;13.798;2023-01-25T06:03:36;47.45;;;23.00;;